Morholmen — 3EUC6 — position and weather

sailwx.info

Track history (hours):
 
Tides and Currents Weather Stations Pressure Air Temp Water Temp Dewpoint Dewpoint Depression Visibility Wind Speed Wind Dir Waves Ship Positions

Morholmen

Last reported at 2018-Jun-24 04:22 UTC. Time now 2018-Jun-24 12:50 UTC.
Position N 28°54' W 094°31'.

Length 144 m; draft 5.9 m.

Type: Tanker. MMSI: 351106000.

Date/timePositionNaut miles runAvg speedWind from/ knotsBaromVisibWave heightAir tempDewpointWater temp
2018-Jun-24 04:22N 28°54' W 094°31'0 0.1
2018-Jun-24 03:57N 28°54' W 094°31'4 7.3
2018-Jun-24 03:28N 28°54' W 094°26'610.1
2018-Jun-24 02:50N 28°55' W 094°19'3 9.4
2018-Jun-24 02:28N 28°55' W 094°15'4 9.4
2018-Jun-24 02:00N 28°57' W 094°11'5 9.6
2018-Jun-24 01:30N 28°59' W 094°06'5 9.6
2018-Jun-24 00:58N 29°01' W 094°00'7 9.7
2018-Jun-24 00:13N 29°04' W 093°52'32 3.1
2018-Jun-23 13:54N 29°02' W 094°29'410.3
2018-Jun-23 13:30N 29°03' W 094°33'5 9.7
2018-Jun-23 13:00N 29°03' W 094°39'1 2.4
2018-Jun-23 12:30N 29°03' W 094°40'0 0.0
2018-Jun-23 12:00N 29°03' W 094°40'0 0.0
2018-Jun-23 11:30N 29°03' W 094°40'0 0.1
2018-Jun-23 11:00N 29°03' W 094°40'0 0.0
2018-Jun-23 10:30N 29°03' W 094°40'0 0.0
2018-Jun-23 10:00N 29°03' W 094°40'0 0.0
2018-Jun-23 09:30N 29°03' W 094°40'0 0.0
2018-Jun-23 09:00N 29°03' W 094°40'0 0.0
2018-Jun-23 08:30N 29°03' W 094°40'0 0.0
2018-Jun-23 08:00N 29°03' W 094°40'0 0.0
2018-Jun-23 07:30N 29°03' W 094°40'0 0.0
2018-Jun-23 07:00N 29°03' W 094°40'0 0.0
2018-Jun-23 06:29N 29°03' W 094°40'0 0.0
2018-Jun-23 05:59N 29°03' W 094°40'0 0.0
2018-Jun-23 05:30N 29°03' W 094°40'0 0.0
2018-Jun-23 05:00N 29°03' W 094°40'0 0.0
2018-Jun-23 04:30N 29°03' W 094°40'0 0.0
2018-Jun-23 04:00N 29°03' W 094°40'0 0.0
2018-Jun-23 03:30N 29°03' W 094°40'0 0.0
2018-Jun-23 03:00N 29°03' W 094°40'0 0.0
2018-Jun-23 02:30N 29°03' W 094°40'0 0.0
2018-Jun-23 02:00N 29°03' W 094°40'0 0.0
2018-Jun-23 01:30N 29°03' W 094°40'1 1.1
2018-Jun-23 01:00N 29°03' W 094°40'1 1.3
2018-Jun-23 00:29N 29°04' W 094°40'0 0.0
2018-Jun-23 00:00N 29°04' W 094°40'0 0.0
2018-Jun-22 23:29N 29°04' W 094°40'0 0.0
2018-Jun-22 22:59N 29°04' W 094°40'0 0.1
2018-Jun-22 22:30N 29°04' W 094°40'0 0.1
2018-Jun-22 21:56N 29°04' W 094°40'0 0.0
2018-Jun-22 21:30N 29°04' W 094°40'0 0.0
2018-Jun-22 20:59N 29°04' W 094°40'0 0.1
2018-Jun-22 20:29N 29°04' W 094°40'0 0.0
2018-Jun-22 19:59N 29°04' W 094°40'0 0.0
2018-Jun-22 19:27N 29°04' W 094°40'0 0.0
2018-Jun-22 19:00N 29°04' W 094°40'1 1.9
2018-Jun-22 18:31N 29°05' W 094°39'3 5.0
2018-Jun-22 18:00N 29°04' W 094°42'1 1.0
2018-Jun-22 17:30N 29°04' W 094°42'0 0.0
2018-Jun-22 17:01N 29°04' W 094°42'0 0.0
2018-Jun-22 16:31N 29°04' W 094°42'0 0.0
2018-Jun-22 16:00N 29°04' W 094°42'0 0.0
2018-Jun-22 15:30N 29°04' W 094°42'0 0.0
2018-Jun-22 14:57N 29°04' W 094°42'0 0.0
2018-Jun-22 14:28N 29°04' W 094°42'0 0.0
2018-Jun-22 13:58N 29°04' W 094°42'0 0.2
2018-Jun-22 13:30N 29°04' W 094°42'1 1.6
2018-Jun-22 12:59N 29°04' W 094°43'1 2.1
2018-Jun-22 12:30N 29°04' W 094°44'0 0.0
2018-Jun-22 12:00N 29°04' W 094°44'0 0.0
2018-Jun-22 11:30N 29°04' W 094°44'0 0.0
2018-Jun-22 11:00N 29°04' W 094°44'0 0.0
2018-Jun-22 10:30N 29°04' W 094°44'0 0.0
2018-Jun-22 10:00N 29°04' W 094°44'0 0.0
2018-Jun-22 09:30N 29°04' W 094°44'0 0.0
2018-Jun-22 09:00N 29°04' W 094°44'0 0.0
2018-Jun-22 08:31N 29°04' W 094°44'0 0.0
2018-Jun-22 08:00N 29°04' W 094°44'0 0.0
2018-Jun-22 07:30N 29°04' W 094°44'0 0.0
2018-Jun-22 07:00N 29°04' W 094°44'0 0.0
2018-Jun-22 06:30N 29°04' W 094°44'0 0.0
2018-Jun-22 06:00N 29°04' W 094°44'0 0.0
2018-Jun-22 05:30N 29°04' W 094°44'0 0.0
2018-Jun-22 05:00N 29°04' W 094°44'0 0.0
2018-Jun-22 04:30N 29°04' W 094°44'1 1.2
2018-Jun-22 04:00N 29°04' W 094°43'3 6.0
2018-Jun-22 03:30N 29°01' W 094°41'3 6.1
2018-Jun-22 03:00N 28°59' W 094°38'3 5.9
2018-Jun-22 02:30N 28°58' W 094°36'3 6.0
2018-Jun-22 02:00N 28°55' W 094°33'3 5.6
2018-Jun-22 01:30N 28°53' W 094°31'3 5.5
2018-Jun-22 01:00N 28°51' W 094°30'1 2.5
2018-Jun-22 00:30N 28°50' W 094°29'0 0.0
2018-Jun-21 23:25N 28°50' W 094°29'0 0.0
2018-Jun-21 22:55N 28°50' W 094°29'0 0.0
2018-Jun-21 22:28N 28°50' W 094°29'0 0.0
2018-Jun-21 21:52N 28°50' W 094°29'0 0.0
2018-Jun-21 21:28N 28°50' W 094°29'0 0.0
2018-Jun-21 20:55N 28°50' W 094°29'0 0.0
2018-Jun-21 20:13N 28°50' W 094°29'0 0.0
2018-Jun-21 19:58N 28°50' W 094°29'0 0.0
2018-Jun-21 19:28N 28°50' W 094°29'0 0.0
2018-Jun-21 15:28N 28°50' W 094°29'1 2.3
2018-Jun-21 14:59N 28°51' W 094°29'2 3.6
2018-Jun-21 14:30N 28°52' W 094°31'3 6.5
2018-Jun-21 14:01N 28°55' W 094°33'5 9.5
2018-Jun-21 13:30N 28°59' W 094°35'5 9.2
2018-Jun-21 13:00N 29°02' W 094°39'2 3.7
2018-Jun-21 12:30N 29°03' W 094°41'0 0.0
2018-Jun-21 12:00N 29°03' W 094°41'0 0.0
2018-Jun-21 11:30N 29°03' W 094°41'0 0.0
2018-Jun-21 11:00N 29°03' W 094°41'0 0.0
2018-Jun-21 10:30N 29°03' W 094°41'0 0.0
2018-Jun-21 10:00N 29°03' W 094°41'0 0.0
2018-Jun-21 09:30N 29°03' W 094°41'0 0.0
2018-Jun-21 08:51N 29°03' W 094°41'0 0.0
2018-Jun-21 08:30N 29°03' W 094°41'0 0.0
2018-Jun-21 08:00N 29°03' W 094°41'0 0.0
2018-Jun-21 07:30N 29°03' W 094°41'0 0.0
2018-Jun-21 07:00N 29°03' W 094°41'0 0.0
2018-Jun-21 06:30N 29°03' W 094°41'0 0.0
2018-Jun-21 06:00N 29°03' W 094°41'0 0.0
2018-Jun-21 05:30N 29°03' W 094°41'0 0.0
2018-Jun-21 05:00N 29°03' W 094°41'0 0.0
2018-Jun-21 04:30N 29°03' W 094°41'0 0.0
2018-Jun-21 04:00N 29°03' W 094°41'0 0.0
2018-Jun-21 03:30N 29°03' W 094°41'0 0.0
2018-Jun-21 03:00N 29°03' W 094°41'0 0.0
2018-Jun-21 02:30N 29°03' W 094°41'0 0.0
2018-Jun-21 02:00N 29°03' W 094°41'0 0.0
2018-Jun-21 01:30N 29°03' W 094°41'0 0.0
2018-Jun-21 01:00N 29°03' W 094°41'0 0.0
2018-Jun-21 00:27N 29°03' W 094°41'0 0.1
2018-Jun-21 00:00N 29°03' W 094°41'0 0.0
2018-Jun-20 23:30N 29°03' W 094°41'0 0.0
2018-Jun-20 23:00N 29°03' W 094°41'0 0.0
2018-Jun-20 22:30N 29°03' W 094°41'0 0.0
2018-Jun-20 21:57N 29°03' W 094°41'0 0.0
2018-Jun-20 21:30N 29°03' W 094°41'0 0.0
2018-Jun-20 21:00N 29°03' W 094°41'0 0.0
2018-Jun-20 20:30N 29°03' W 094°41'0 0.0
2018-Jun-20 20:00N 29°03' W 094°41'0 0.0
2018-Jun-20 19:27N 29°03' W 094°41'0 0.0
2018-Jun-20 19:00N 29°03' W 094°41'0 0.0
2018-Jun-20 18:30N 29°03' W 094°41'0 0.0
2018-Jun-20 18:00N 29°03' W 094°41'0 0.0
2018-Jun-20 17:30N 29°03' W 094°41'0 0.0
2018-Jun-20 17:00N 29°03' W 094°41'0 0.0
2018-Jun-20 16:30N 29°03' W 094°41'0 0.0
2018-Jun-20 16:00N 29°03' W 094°41'0 0.0
2018-Jun-20 15:30N 29°03' W 094°41'0 0.0
2018-Jun-20 15:00N 29°03' W 094°41'0 0.0
2018-Jun-20 14:30N 29°03' W 094°41'0 0.0
2018-Jun-20 14:00N 29°03' W 094°41'0 0.0
2018-Jun-20 13:30N 29°03' W 094°41'0 0.0
2018-Jun-20 13:00N 29°03' W 094°41'0 0.0
2018-Jun-20 12:30N 29°03' W 094°41'0 0.0
2018-Jun-20 11:57N 29°03' W 094°41'0 0.0
2018-Jun-20 03:12N 29°03' W 094°41'0 0.1
2018-Jun-20 03:00N 29°03' W 094°41'0 0.0
2018-Jun-20 02:27N 29°03' W 094°41'0 0.0
2018-Jun-20 02:00N 29°03' W 094°41'0 0.0
2018-Jun-20 01:30N 29°03' W 094°41'0 0.0
2018-Jun-20 01:00N 29°03' W 094°41'0 0.0
2018-Jun-20 00:30N 29°03' W 094°41'0 0.0
2018-Jun-19 23:57N 29°03' W 094°41'0 0.0
2018-Jun-19 23:27N 29°03' W 094°41'0 0.0
2018-Jun-19 22:57N 29°03' W 094°41'0 0.0
2018-Jun-19 22:30N 29°03' W 094°41'0 0.0
2018-Jun-19 22:00N 29°03' W 094°41'0 0.0
2018-Jun-19 21:30N 29°03' W 094°41'0 0.0
2018-Jun-19 21:00N 29°03' W 094°41'0 0.0
2018-Jun-19 20:30N 29°03' W 094°41'0 0.0
2018-Jun-19 20:00N 29°03' W 094°41'0 0.0
2018-Jun-19 19:30N 29°03' W 094°41'0 0.0
2018-Jun-19 19:00N 29°03' W 094°41'0 0.0
2018-Jun-19 18:30N 29°03' W 094°41'0 0.0
2018-Jun-19 18:00N 29°03' W 094°41'0 0.0
2018-Jun-19 17:30N 29°03' W 094°41'0 0.0
2018-Jun-19 17:00N 29°03' W 094°41'0 0.0
2018-Jun-19 16:30N 29°03' W 094°41'0 0.0
2018-Jun-19 16:00N 29°03' W 094°41'0 0.0
2018-Jun-19 15:30N 29°03' W 094°41'0 0.0
2018-Jun-19 15:00N 29°03' W 094°41'0 0.0
2018-Jun-19 14:30N 29°03' W 094°41'0 0.0
2018-Jun-19 13:57N 29°03' W 094°41'0 0.0
2018-Jun-19 13:30N 29°03' W 094°41'0 0.0
2018-Jun-19 13:00N 29°03' W 094°41'0 0.0
2018-Jun-19 12:30N 29°03' W 094°41'0 0.0
2018-Jun-19 12:00N 29°03' W 094°41'0 0.0
2018-Jun-19 11:30N 29°03' W 094°41'0 0.0
2018-Jun-19 11:00N 29°03' W 094°41'0 0.0
2018-Jun-19 10:30N 29°03' W 094°41'0 0.0
2018-Jun-19 10:00N 29°03' W 094°41'0 0.0
2018-Jun-19 09:30N 29°03' W 094°41'0 0.1
2018-Jun-19 09:00N 29°03' W 094°41'0 0.0
2018-Jun-19 08:30N 29°03' W 094°41'0 0.0
2018-Jun-19 08:00N 29°03' W 094°41'0 0.1
2018-Jun-19 07:30N 29°03' W 094°41'0 0.0
2018-Jun-19 07:00N 29°03' W 094°41'0 0.0
2018-Jun-19 06:30N 29°03' W 094°41'0 0.1
2018-Jun-19 06:00N 29°03' W 094°41'0 0.0
2018-Jun-19 05:30N 29°03' W 094°41'0 0.0
2018-Jun-19 05:00N 29°03' W 094°41'0 0.0
2018-Jun-19 04:30N 29°03' W 094°41'0 0.0
2018-Jun-19 04:00N 29°03' W 094°41'0 0.0
2018-Jun-19 03:30N 29°03' W 094°41'0 0.0
2018-Jun-19 03:00N 29°03' W 094°41'0 0.0
2018-Jun-19 02:30N 29°03' W 094°41'0 0.0
2018-Jun-19 02:00N 29°03' W 094°41'0 0.0
2018-Jun-19 01:27N 29°03' W 094°41'0 0.1
2018-Jun-19 00:54N 29°03' W 094°41'0 0.0
2018-Jun-19 00:24N 29°03' W 094°41'0 0.0
2018-Jun-19 00:00N 29°03' W 094°41'0 0.0
2018-Jun-18 23:30N 29°03' W 094°41'0 0.0
2018-Jun-18 23:00N 29°03' W 094°41'0 0.0
2018-Jun-18 22:30N 29°03' W 094°41'0 0.0
2018-Jun-18 22:00N 29°03' W 094°41'0 0.0
2018-Jun-18 21:30N 29°03' W 094°41'0 0.0
2018-Jun-18 21:00N 29°03' W 094°41'0 0.0
2018-Jun-18 20:27N 29°03' W 094°41'0 0.0
2018-Jun-18 20:00N 29°03' W 094°41'0 0.0
2018-Jun-18 19:30N 29°03' W 094°41'0 0.0
2018-Jun-18 19:00N 29°03' W 094°41'0 0.0
2018-Jun-18 18:30N 29°03' W 094°41'0 0.0
2018-Jun-18 18:00N 29°03' W 094°41'0 0.0
2018-Jun-18 17:30N 29°03' W 094°41'0 0.0
2018-Jun-18 17:00N 29°03' W 094°41'0 0.0
2018-Jun-18 16:30N 29°03' W 094°41'0 0.0
2018-Jun-18 16:00N 29°03' W 094°41'0 0.0
2018-Jun-18 15:27N 29°03' W 094°41'0 0.1
2018-Jun-18 15:00N 29°03' W 094°41'0 0.1
2018-Jun-18 14:30N 29°03' W 094°41'0 0.0
2018-Jun-18 14:00N 29°03' W 094°41'0 0.1
2018-Jun-18 13:27N 29°03' W 094°41'0 0.0
2018-Jun-18 13:00N 29°03' W 094°41'0 0.0
2018-Jun-18 12:30N 29°03' W 094°41'0 0.0
2018-Jun-18 12:00N 29°03' W 094°41'0 0.1
2018-Jun-18 11:24N 29°03' W 094°41'0 0.0
2018-Jun-18 10:57N 29°03' W 094°41'0 0.0
2018-Jun-18 10:30N 29°03' W 094°41'0 0.0
2018-Jun-18 10:00N 29°03' W 094°41'0 0.0
2018-Jun-18 09:30N 29°03' W 094°41'0 0.0
2018-Jun-18 09:00N 29°03' W 094°41'0 0.0
2018-Jun-18 08:30N 29°03' W 094°41'0 0.0
2018-Jun-18 08:00N 29°03' W 094°41'0 0.0
2018-Jun-18 07:30N 29°03' W 094°41'0 0.0
2018-Jun-18 07:00N 29°03' W 094°41'0 0.0
2018-Jun-18 06:30N 29°03' W 094°41'0 0.0
2018-Jun-18 06:00N 29°03' W 094°41'0 0.0
2018-Jun-18 05:30N 29°03' W 094°41'0 0.0
2018-Jun-18 05:00N 29°03' W 094°41'0 0.0
2018-Jun-18 04:30N 29°03' W 094°41'0 0.0
2018-Jun-18 04:00N 29°03' W 094°41'0 0.0
2018-Jun-18 03:30N 29°03' W 094°41'0 0.0
2018-Jun-18 03:00N 29°03' W 094°41'0 0.0
2018-Jun-18 02:30N 29°03' W 094°41'0 0.0
2018-Jun-18 01:57N 29°03' W 094°41'0 0.0
2018-Jun-18 01:30N 29°03' W 094°41'0 0.0
2018-Jun-18 01:00N 29°03' W 094°41'0 0.0
2018-Jun-18 00:30N 29°03' W 094°41'0 0.0
2018-Jun-18 00:00N 29°03' W 094°41'0 0.0
2018-Jun-17 23:30N 29°03' W 094°41'0 0.0
2018-Jun-17 23:00N 29°03' W 094°41'0 0.0
2018-Jun-17 22:30N 29°03' W 094°41'0 0.0
2018-Jun-17 22:00N 29°03' W 094°41'0 0.0
2018-Jun-17 21:30N 29°03' W 094°41'0 0.0
2018-Jun-17 21:00N 29°03' W 094°41'0 0.0
2018-Jun-17 20:30N 29°03' W 094°41'0 0.0
2018-Jun-17 20:00N 29°03' W 094°41'0 0.0
2018-Jun-17 19:30N 29°03' W 094°41'0 0.0
2018-Jun-17 19:00N 29°03' W 094°41'0 0.0
2018-Jun-17 18:30N 29°03' W 094°41'0 0.0
2018-Jun-17 18:00N 29°03' W 094°41'0 0.0
2018-Jun-17 17:30N 29°03' W 094°41'0 0.5
2018-Jun-17 17:00N 29°03' W 094°41'1 2.6
2018-Jun-17 16:30N 29°04' W 094°40'0 0.9
2018-Jun-17 16:00N 29°04' W 094°40'0 0.3
2018-Jun-17 15:30N 29°04' W 094°40'1 2.3
2018-Jun-17 15:00N 29°04' W 094°41'1 2.6
2018-Jun-17 14:30N 29°03' W 094°40'24 1.2
2018-Jun-16 18:19N 28°56' W 094°14'4 9.7
2018-Jun-16 17:56N 28°57' W 094°10'25 1.1
2018-Jun-15 19:59N 29°08' W 093°45'0 0.0
2018-Jun-15 14:02N 29°08' W 093°45'0 0.5
2018-Jun-15 13:41N 29°08' W 093°45'44 6.7
2018-Jun-15 07:07N 28°56' W 094°34'0 2.7
2018-Jun-15 06:58N 28°55' W 094°34'0 0.7
2018-Jun-15 06:25N 28°55' W 094°33'0 0.0
2018-Jun-15 05:58N 28°55' W 094°33'0 0.0
2018-Jun-15 05:10N 28°55' W 094°33'0 0.0
2018-Jun-15 04:52N 28°55' W 094°33'0 0.0
2018-Jun-15 04:28N 28°55' W 094°33'0 0.0
2018-Jun-15 02:58N 28°55' W 094°33'0 0.0
2018-Jun-15 02:07N 28°55' W 094°33'0 0.0
2018-Jun-14 22:25N 28°55' W 094°33'0 0.0
2018-Jun-14 21:44N 28°55' W 094°33'1 1.6
2018-Jun-14 21:05N 28°55' W 094°34'0 6.2
2018-Jun-14 21:00N 28°55' W 094°34'3 5.4
2018-Jun-14 20:29N 28°54' W 094°31'3 0.3
2018-Jun-14 09:54N 28°51' W 094°29'0 0.0
2018-Jun-14 09:28N 28°51' W 094°29'0 0.0
2018-Jun-14 08:56N 28°51' W 094°29'0 0.0
2018-Jun-14 08:25N 28°51' W 094°29'0 0.0
2018-Jun-14 07:55N 28°51' W 094°29'0 0.0
2018-Jun-14 07:29N 28°51' W 094°29'0 0.0
2018-Jun-14 06:43N 28°51' W 094°29'0 0.0
2018-Jun-14 06:11N 28°51' W 094°29'0 0.0
2018-Jun-14 05:51N 28°51' W 094°29'0 0.0
2018-Jun-14 05:29N 28°51' W 094°29'  
Track history (hours):
 
Tides and Currents Weather Stations Pressure Air Temp Water Temp Dewpoint Dewpoint Depression Visibility Wind Speed Wind Dir Waves Ship Positions

Morholmen

Last reported at 2018-Jun-24 04:22 UTC. Time now 2018-Jun-24 12:50 UTC.
Position N 28°54' W 094°31'.

Length 144 m; draft 5.9 m.

Type: Tanker. MMSI: 351106000.

Date/timePositionNaut miles runAvg speedWind from/ knotsBaromVisibWave heightAir tempDewpointWater temp
2018-Jun-24 04:22N 28°54' W 094°31'0 0.1
2018-Jun-24 03:57N 28°54' W 094°31'4 7.3
2018-Jun-24 03:28N 28°54' W 094°26'610.1
2018-Jun-24 02:50N 28°55' W 094°19'3 9.4
2018-Jun-24 02:28N 28°55' W 094°15'4 9.4
2018-Jun-24 02:00N 28°57' W 094°11'5 9.6
2018-Jun-24 01:30N 28°59' W 094°06'5 9.6
2018-Jun-24 00:58N 29°01' W 094°00'7 9.7
2018-Jun-24 00:13N 29°04' W 093°52'32 3.1
2018-Jun-23 13:54N 29°02' W 094°29'410.3
2018-Jun-23 13:30N 29°03' W 094°33'5 9.7
2018-Jun-23 13:00N 29°03' W 094°39'1 2.4
2018-Jun-23 12:30N 29°03' W 094°40'0 0.0
2018-Jun-23 12:00N 29°03' W 094°40'0 0.0
2018-Jun-23 11:30N 29°03' W 094°40'0 0.1
2018-Jun-23 11:00N 29°03' W 094°40'0 0.0
2018-Jun-23 10:30N 29°03' W 094°40'0 0.0
2018-Jun-23 10:00N 29°03' W 094°40'0 0.0
2018-Jun-23 09:30N 29°03' W 094°40'0 0.0
2018-Jun-23 09:00N 29°03' W 094°40'0 0.0
2018-Jun-23 08:30N 29°03' W 094°40'0 0.0
2018-Jun-23 08:00N 29°03' W 094°40'0 0.0
2018-Jun-23 07:30N 29°03' W 094°40'0 0.0
2018-Jun-23 07:00N 29°03' W 094°40'0 0.0
2018-Jun-23 06:29N 29°03' W 094°40'0 0.0
2018-Jun-23 05:59N 29°03' W 094°40'0 0.0
2018-Jun-23 05:30N 29°03' W 094°40'0 0.0
2018-Jun-23 05:00N 29°03' W 094°40'0 0.0
2018-Jun-23 04:30N 29°03' W 094°40'0 0.0
2018-Jun-23 04:00N 29°03' W 094°40'0 0.0
2018-Jun-23 03:30N 29°03' W 094°40'0 0.0
2018-Jun-23 03:00N 29°03' W 094°40'0 0.0
2018-Jun-23 02:30N 29°03' W 094°40'0 0.0
2018-Jun-23 02:00N 29°03' W 094°40'0 0.0
2018-Jun-23 01:30N 29°03' W 094°40'1 1.1
2018-Jun-23 01:00N 29°03' W 094°40'1 1.3
2018-Jun-23 00:29N 29°04' W 094°40'0 0.0
2018-Jun-23 00:00N 29°04' W 094°40'0 0.0
2018-Jun-22 23:29N 29°04' W 094°40'0 0.0
2018-Jun-22 22:59N 29°04' W 094°40'0 0.1
2018-Jun-22 22:30N 29°04' W 094°40'0 0.1
2018-Jun-22 21:56N 29°04' W 094°40'0 0.0
2018-Jun-22 21:30N 29°04' W 094°40'0 0.0
2018-Jun-22 20:59N 29°04' W 094°40'0 0.1
2018-Jun-22 20:29N 29°04' W 094°40'0 0.0
2018-Jun-22 19:59N 29°04' W 094°40'0 0.0
2018-Jun-22 19:27N 29°04' W 094°40'0 0.0
2018-Jun-22 19:00N 29°04' W 094°40'1 1.9
2018-Jun-22 18:31N 29°05' W 094°39'3 5.0
2018-Jun-22 18:00N 29°04' W 094°42'1 1.0
2018-Jun-22 17:30N 29°04' W 094°42'0 0.0
2018-Jun-22 17:01N 29°04' W 094°42'0 0.0
2018-Jun-22 16:31N 29°04' W 094°42'0 0.0
2018-Jun-22 16:00N 29°04' W 094°42'0 0.0
2018-Jun-22 15:30N 29°04' W 094°42'0 0.0
2018-Jun-22 14:57N 29°04' W 094°42'0 0.0
2018-Jun-22 14:28N 29°04' W 094°42'0 0.0
2018-Jun-22 13:58N 29°04' W 094°42'0 0.2
2018-Jun-22 13:30N 29°04' W 094°42'1 1.6
2018-Jun-22 12:59N 29°04' W 094°43'1 2.1
2018-Jun-22 12:30N 29°04' W 094°44'0 0.0
2018-Jun-22 12:00N 29°04' W 094°44'0 0.0
2018-Jun-22 11:30N 29°04' W 094°44'0 0.0
2018-Jun-22 11:00N 29°04' W 094°44'0 0.0
2018-Jun-22 10:30N 29°04' W 094°44'0 0.0
2018-Jun-22 10:00N 29°04' W 094°44'0 0.0
2018-Jun-22 09:30N 29°04' W 094°44'0 0.0
2018-Jun-22 09:00N 29°04' W 094°44'0 0.0
2018-Jun-22 08:31N 29°04' W 094°44'0 0.0
2018-Jun-22 08:00N 29°04' W 094°44'0 0.0
2018-Jun-22 07:30N 29°04' W 094°44'0 0.0
2018-Jun-22 07:00N 29°04' W 094°44'0 0.0
2018-Jun-22 06:30N 29°04' W 094°44'0 0.0
2018-Jun-22 06:00N 29°04' W 094°44'0 0.0
2018-Jun-22 05:30N 29°04' W 094°44'0 0.0
2018-Jun-22 05:00N 29°04' W 094°44'0 0.0
2018-Jun-22 04:30N 29°04' W 094°44'1 1.2
2018-Jun-22 04:00N 29°04' W 094°43'3 6.0
2018-Jun-22 03:30N 29°01' W 094°41'3 6.1
2018-Jun-22 03:00N 28°59' W 094°38'3 5.9
2018-Jun-22 02:30N 28°58' W 094°36'3 6.0
2018-Jun-22 02:00N 28°55' W 094°33'3 5.6
2018-Jun-22 01:30N 28°53' W 094°31'3 5.5
2018-Jun-22 01:00N 28°51' W 094°30'1 2.5
2018-Jun-22 00:30N 28°50' W 094°29'0 0.0
2018-Jun-21 23:25N 28°50' W 094°29'0 0.0
2018-Jun-21 22:55N 28°50' W 094°29'0 0.0
2018-Jun-21 22:28N 28°50' W 094°29'0 0.0
2018-Jun-21 21:52N 28°50' W 094°29'0 0.0
2018-Jun-21 21:28N 28°50' W 094°29'0 0.0
2018-Jun-21 20:55N 28°50' W 094°29'0 0.0
2018-Jun-21 20:13N 28°50' W 094°29'0 0.0
2018-Jun-21 19:58N 28°50' W 094°29'0 0.0
2018-Jun-21 19:28N 28°50' W 094°29'0 0.0
2018-Jun-21 15:28N 28°50' W 094°29'1 2.3
2018-Jun-21 14:59N 28°51' W 094°29'2 3.6
2018-Jun-21 14:30N 28°52' W 094°31'3 6.5
2018-Jun-21 14:01N 28°55' W 094°33'5 9.5
2018-Jun-21 13:30N 28°59' W 094°35'5 9.2
2018-Jun-21 13:00N 29°02' W 094°39'2 3.7
2018-Jun-21 12:30N 29°03' W 094°41'0 0.0
2018-Jun-21 12:00N 29°03' W 094°41'0 0.0
2018-Jun-21 11:30N 29°03' W 094°41'0 0.0
2018-Jun-21 11:00N 29°03' W 094°41'0 0.0
2018-Jun-21 10:30N 29°03' W 094°41'0 0.0
2018-Jun-21 10:00N 29°03' W 094°41'0 0.0
2018-Jun-21 09:30N 29°03' W 094°41'0 0.0
2018-Jun-21 08:51N 29°03' W 094°41'0 0.0
2018-Jun-21 08:30N 29°03' W 094°41'0 0.0
2018-Jun-21 08:00N 29°03' W 094°41'0 0.0
2018-Jun-21 07:30N 29°03' W 094°41'0 0.0
2018-Jun-21 07:00N 29°03' W 094°41'0 0.0
2018-Jun-21 06:30N 29°03' W 094°41'0 0.0
2018-Jun-21 06:00N 29°03' W 094°41'0 0.0
2018-Jun-21 05:30N 29°03' W 094°41'0 0.0
2018-Jun-21 05:00N 29°03' W 094°41'0 0.0
2018-Jun-21 04:30N 29°03' W 094°41'0 0.0
2018-Jun-21 04:00N 29°03' W 094°41'0 0.0
2018-Jun-21 03:30N 29°03' W 094°41'0 0.0
2018-Jun-21 03:00N 29°03' W 094°41'0 0.0
2018-Jun-21 02:30N 29°03' W 094°41'0 0.0
2018-Jun-21 02:00N 29°03' W 094°41'0 0.0
2018-Jun-21 01:30N 29°03' W 094°41'0 0.0
2018-Jun-21 01:00N 29°03' W 094°41'0 0.0
2018-Jun-21 00:27N 29°03' W 094°41'0 0.1
2018-Jun-21 00:00N 29°03' W 094°41'0 0.0
2018-Jun-20 23:30N 29°03' W 094°41'0 0.0
2018-Jun-20 23:00N 29°03' W 094°41'0 0.0
2018-Jun-20 22:30N 29°03' W 094°41'0 0.0
2018-Jun-20 21:57N 29°03' W 094°41'0 0.0
2018-Jun-20 21:30N 29°03' W 094°41'0 0.0
2018-Jun-20 21:00N 29°03' W 094°41'0 0.0
2018-Jun-20 20:30N 29°03' W 094°41'0 0.0
2018-Jun-20 20:00N 29°03' W 094°41'0 0.0
2018-Jun-20 19:27N 29°03' W 094°41'0 0.0
2018-Jun-20 19:00N 29°03' W 094°41'0 0.0
2018-Jun-20 18:30N 29°03' W 094°41'0 0.0
2018-Jun-20 18:00N 29°03' W 094°41'0 0.0
2018-Jun-20 17:30N 29°03' W 094°41'0 0.0
2018-Jun-20 17:00N 29°03' W 094°41'0 0.0
2018-Jun-20 16:30N 29°03' W 094°41'0 0.0
2018-Jun-20 16:00N 29°03' W 094°41'0 0.0
2018-Jun-20 15:30N 29°03' W 094°41'0 0.0
2018-Jun-20 15:00N 29°03' W 094°41'0 0.0
2018-Jun-20 14:30N 29°03' W 094°41'0 0.0
2018-Jun-20 14:00N 29°03' W 094°41'0 0.0
2018-Jun-20 13:30N 29°03' W 094°41'0 0.0
2018-Jun-20 13:00N 29°03' W 094°41'0 0.0
2018-Jun-20 12:30N 29°03' W 094°41'0 0.0
2018-Jun-20 11:57N 29°03' W 094°41'0 0.0
2018-Jun-20 03:12N 29°03' W 094°41'0 0.1
2018-Jun-20 03:00N 29°03' W 094°41'0 0.0
2018-Jun-20 02:27N 29°03' W 094°41'0 0.0
2018-Jun-20 02:00N 29°03' W 094°41'0 0.0
2018-Jun-20 01:30N 29°03' W 094°41'0 0.0
2018-Jun-20 01:00N 29°03' W 094°41'0 0.0
2018-Jun-20 00:30N 29°03' W 094°41'0 0.0
2018-Jun-19 23:57N 29°03' W 094°41'0 0.0
2018-Jun-19 23:27N 29°03' W 094°41'0 0.0
2018-Jun-19 22:57N 29°03' W 094°41'0 0.0
2018-Jun-19 22:30N 29°03' W 094°41'0 0.0
2018-Jun-19 22:00N 29°03' W 094°41'0 0.0
2018-Jun-19 21:30N 29°03' W 094°41'0 0.0
2018-Jun-19 21:00N 29°03' W 094°41'0 0.0
2018-Jun-19 20:30N 29°03' W 094°41'0 0.0
2018-Jun-19 20:00N 29°03' W 094°41'0 0.0
2018-Jun-19 19:30N 29°03' W 094°41'0 0.0
2018-Jun-19 19:00N 29°03' W 094°41'0 0.0
2018-Jun-19 18:30N 29°03' W 094°41'0 0.0
2018-Jun-19 18:00N 29°03' W 094°41'0 0.0
2018-Jun-19 17:30N 29°03' W 094°41'0 0.0
2018-Jun-19 17:00N 29°03' W 094°41'0 0.0
2018-Jun-19 16:30N 29°03' W 094°41'0 0.0
2018-Jun-19 16:00N 29°03' W 094°41'0 0.0
2018-Jun-19 15:30N 29°03' W 094°41'0 0.0
2018-Jun-19 15:00N 29°03' W 094°41'0 0.0
2018-Jun-19 14:30N 29°03' W 094°41'0 0.0
2018-Jun-19 13:57N 29°03' W 094°41'0 0.0
2018-Jun-19 13:30N 29°03' W 094°41'0 0.0
2018-Jun-19 13:00N 29°03' W 094°41'0 0.0
2018-Jun-19 12:30N 29°03' W 094°41'0 0.0
2018-Jun-19 12:00N 29°03' W 094°41'0 0.0
2018-Jun-19 11:30N 29°03' W 094°41'0 0.0
2018-Jun-19 11:00N 29°03' W 094°41'0 0.0
2018-Jun-19 10:30N 29°03' W 094°41'0 0.0
2018-Jun-19 10:00N 29°03' W 094°41'0 0.0
2018-Jun-19 09:30N 29°03' W 094°41'0 0.1
2018-Jun-19 09:00N 29°03' W 094°41'0 0.0
2018-Jun-19 08:30N 29°03' W 094°41'0 0.0
2018-Jun-19 08:00N 29°03' W 094°41'0 0.1
2018-Jun-19 07:30N 29°03' W 094°41'0 0.0
2018-Jun-19 07:00N 29°03' W 094°41'0 0.0
2018-Jun-19 06:30N 29°03' W 094°41'0 0.1
2018-Jun-19 06:00N 29°03' W 094°41'0 0.0
2018-Jun-19 05:30N 29°03' W 094°41'0 0.0
2018-Jun-19 05:00N 29°03' W 094°41'0 0.0
2018-Jun-19 04:30N 29°03' W 094°41'0 0.0
2018-Jun-19 04:00N 29°03' W 094°41'0 0.0
2018-Jun-19 03:30N 29°03' W 094°41'0 0.0
2018-Jun-19 03:00N 29°03' W 094°41'0 0.0
2018-Jun-19 02:30N 29°03' W 094°41'0 0.0
2018-Jun-19 02:00N 29°03' W 094°41'0 0.0
2018-Jun-19 01:27N 29°03' W 094°41'0 0.1
2018-Jun-19 00:54N 29°03' W 094°41'0 0.0
2018-Jun-19 00:24N 29°03' W 094°41'0 0.0
2018-Jun-19 00:00N 29°03' W 094°41'0 0.0
2018-Jun-18 23:30N 29°03' W 094°41'0 0.0
2018-Jun-18 23:00N 29°03' W 094°41'0 0.0
2018-Jun-18 22:30N 29°03' W 094°41'0 0.0
2018-Jun-18 22:00N 29°03' W 094°41'0 0.0
2018-Jun-18 21:30N 29°03' W 094°41'0 0.0
2018-Jun-18 21:00N 29°03' W 094°41'0 0.0
2018-Jun-18 20:27N 29°03' W 094°41'0 0.0
2018-Jun-18 20:00N 29°03' W 094°41'0 0.0
2018-Jun-18 19:30N 29°03' W 094°41'0 0.0
2018-Jun-18 19:00N 29°03' W 094°41'0 0.0
2018-Jun-18 18:30N 29°03' W 094°41'0 0.0
2018-Jun-18 18:00N 29°03' W 094°41'0 0.0
2018-Jun-18 17:30N 29°03' W 094°41'0 0.0
2018-Jun-18 17:00N 29°03' W 094°41'0 0.0
2018-Jun-18 16:30N 29°03' W 094°41'0 0.0
2018-Jun-18 16:00N 29°03' W 094°41'0 0.0
2018-Jun-18 15:27N 29°03' W 094°41'0 0.1
2018-Jun-18 15:00N 29°03' W 094°41'0 0.1
2018-Jun-18 14:30N 29°03' W 094°41'0 0.0
2018-Jun-18 14:00N 29°03' W 094°41'0 0.1
2018-Jun-18 13:27N 29°03' W 094°41'0 0.0
2018-Jun-18 13:00N 29°03' W 094°41'0 0.0
2018-Jun-18 12:30N 29°03' W 094°41'0 0.0
2018-Jun-18 12:00N 29°03' W 094°41'0 0.1
2018-Jun-18 11:24N 29°03' W 094°41'0 0.0
2018-Jun-18 10:57N 29°03' W 094°41'0 0.0
2018-Jun-18 10:30N 29°03' W 094°41'0 0.0
2018-Jun-18 10:00N 29°03' W 094°41'0 0.0
2018-Jun-18 09:30N 29°03' W 094°41'0 0.0
2018-Jun-18 09:00N 29°03' W 094°41'0 0.0
2018-Jun-18 08:30N 29°03' W 094°41'0 0.0
2018-Jun-18 08:00N 29°03' W 094°41'0 0.0
2018-Jun-18 07:30N 29°03' W 094°41'0 0.0
2018-Jun-18 07:00N 29°03' W 094°41'0 0.0
2018-Jun-18 06:30N 29°03' W 094°41'0 0.0
2018-Jun-18 06:00N 29°03' W 094°41'0 0.0
2018-Jun-18 05:30N 29°03' W 094°41'0 0.0
2018-Jun-18 05:00N 29°03' W 094°41'0 0.0
2018-Jun-18 04:30N 29°03' W 094°41'0 0.0
2018-Jun-18 04:00N 29°03' W 094°41'0 0.0
2018-Jun-18 03:30N 29°03' W 094°41'0 0.0
2018-Jun-18 03:00N 29°03' W 094°41'0 0.0
2018-Jun-18 02:30N 29°03' W 094°41'0 0.0
2018-Jun-18 01:57N 29°03' W 094°41'0 0.0
2018-Jun-18 01:30N 29°03' W 094°41'0 0.0
2018-Jun-18 01:00N 29°03' W 094°41'0 0.0
2018-Jun-18 00:30N 29°03' W 094°41'0 0.0
2018-Jun-18 00:00N 29°03' W 094°41'0 0.0
2018-Jun-17 23:30N 29°03' W 094°41'0 0.0
2018-Jun-17 23:00N 29°03' W 094°41'0 0.0
2018-Jun-17 22:30N 29°03' W 094°41'0 0.0
2018-Jun-17 22:00N 29°03' W 094°41'0 0.0
2018-Jun-17 21:30N 29°03' W 094°41'0 0.0
2018-Jun-17 21:00N 29°03' W 094°41'0 0.0
2018-Jun-17 20:30N 29°03' W 094°41'0 0.0
2018-Jun-17 20:00N 29°03' W 094°41'0 0.0
2018-Jun-17 19:30N 29°03' W 094°41'0 0.0
2018-Jun-17 19:00N 29°03' W 094°41'0 0.0
2018-Jun-17 18:30N 29°03' W 094°41'0 0.0
2018-Jun-17 18:00N 29°03' W 094°41'0 0.0
2018-Jun-17 17:30N 29°03' W 094°41'0 0.5
2018-Jun-17 17:00N 29°03' W 094°41'1 2.6
2018-Jun-17 16:30N 29°04' W 094°40'0 0.9
2018-Jun-17 16:00N 29°04' W 094°40'0 0.3
2018-Jun-17 15:30N 29°04' W 094°40'1 2.3
2018-Jun-17 15:00N 29°04' W 094°41'1 2.6
2018-Jun-17 14:30N 29°03' W 094°40'24 1.2
2018-Jun-16 18:19N 28°56' W 094°14'4 9.7
2018-Jun-16 17:56N 28°57' W 094°10'25 1.1
2018-Jun-15 19:59N 29°08' W 093°45'0 0.0
2018-Jun-15 14:02N 29°08' W 093°45'0 0.5
2018-Jun-15 13:41N 29°08' W 093°45'44 6.7
2018-Jun-15 07:07N 28°56' W 094°34'0 2.7
2018-Jun-15 06:58N 28°55' W 094°34'0 0.7
2018-Jun-15 06:25N 28°55' W 094°33'0 0.0
2018-Jun-15 05:58N 28°55' W 094°33'0 0.0
2018-Jun-15 05:10N 28°55' W 094°33'0 0.0
2018-Jun-15 04:52N 28°55' W 094°33'0 0.0
2018-Jun-15 04:28N 28°55' W 094°33'0 0.0
2018-Jun-15 02:58N 28°55' W 094°33'0 0.0
2018-Jun-15 02:07N 28°55' W 094°33'0 0.0
2018-Jun-14 22:25N 28°55' W 094°33'0 0.0
2018-Jun-14 21:44N 28°55' W 094°33'1 1.6
2018-Jun-14 21:05N 28°55' W 094°34'0 6.2
2018-Jun-14 21:00N 28°55' W 094°34'3 5.4
2018-Jun-14 20:29N 28°54' W 094°31'3 0.3
2018-Jun-14 09:54N 28°51' W 094°29'0 0.0
2018-Jun-14 09:28N 28°51' W 094°29'0 0.0
2018-Jun-14 08:56N 28°51' W 094°29'0 0.0
2018-Jun-14 08:25N 28°51' W 094°29'0 0.0
2018-Jun-14 07:55N 28°51' W 094°29'0 0.0
2018-Jun-14 07:29N 28°51' W 094°29'0 0.0
2018-Jun-14 06:43N 28°51' W 094°29'0 0.0
2018-Jun-14 06:11N 28°51' W 094°29'0 0.0
2018-Jun-14 05:51N 28°51' W 094°29'0 0.0
2018-Jun-14 05:29N 28°51' W 094°29'  

Dump ship's entire track history